Time;durP1;ratioP1;P1;durP2;ratioP2;P2;SDS_P1;SDS_P2;PMS_P1;PMS_P2;Temp;Humidity;BMP_temperature;BMP_pressure;BME280_temperature;BME280_humidity;BME280_pressure;Samples;Min_cycle;Max_cycle;Signal;HPM_P1;HPM_P2
2021/08/21 00:02:12;;;;;;;11.20;10.10;;;;;;;15.70;76.13;101501.56;5039871;28;20611;-75
2021/08/21 00:04:37;;;;;;;12.90;10.70;;;;;;;15.59;76.19;101500.69;5039652;28;20172;-74
2021/08/21 00:07:06;;;;;;;13.67;11.83;;;;;;;15.52;76.72;101507.69;5040204;28;20174;-73
2021/08/21 00:09:35;;;;;;;11.57;10.37;;;;;;;15.66;75.68;101503.31;5039625;28;20236;-74
2021/08/21 00:12:01;;;;;;;14.63;11.43;;;;;;;15.66;76.18;101505.94;5039627;28;20387;-75
2021/08/21 00:14:26;;;;;;;11.27;10.07;;;;;;;15.39;77.19;101505.91;5022489;28;20438;-75
2021/08/21 00:16:51;;;;;;;10.43;9.50;;;;;;;15.60;76.39;101510.31;5039492;28;20431;-75
2021/08/21 00:19:17;;;;;;;10.90;9.80;;;;;;;15.64;75.95;101514.69;5039569;28;20249;-75
2021/08/21 00:21:42;;;;;;;11.43;10.23;;;;;;;15.57;76.77;101508.56;5040157;28;20198;-74
2021/08/21 00:24:08;;;;;;;11.90;10.70;;;;;;;15.49;76.92;101510.31;5039201;28;20218;-75
2021/08/21 00:26:33;;;;;;;11.50;10.23;;;;;;;15.46;76.42;101512.94;5039317;28;20216;-75
2021/08/21 00:28:58;;;;;;;12.63;10.63;;;;;;;15.44;76.58;101512.94;5039461;28;20201;-75
2021/08/21 00:31:24;;;;;;;10.97;9.90;;;;;;;15.47;76.18;101517.31;5039331;28;20205;-75
2021/08/21 00:33:49;;;;;;;11.23;10.13;;;;;;;15.51;76.48;101512.97;5039144;28;20167;-74
2021/08/21 00:36:15;;;;;;;12.37;10.90;;;;;;;15.42;76.27;101512.03;5040297;28;20265;-75
2021/08/21 00:38:40;;;;;;;18.40;11.23;;;;;;;15.54;76.57;101513.81;5039128;28;20219;-73
2021/08/21 00:41:06;;;;;;;12.17;10.90;;;;;;;15.43;76.20;101512.94;5039245;28;20209;-74
2021/08/21 00:43:34;;;;;;;13.73;11.13;;;;;;;15.29;76.77;101518.16;5039403;28;20257;-74
2021/08/21 00:45:59;;;;;;;12.63;11.33;;;;;;;15.42;76.56;101517.28;5021874;28;20539;-74
2021/08/21 00:48:24;;;;;;;12.87;11.50;;;;;;;15.44;76.46;101515.56;5039223;28;20507;-73
2021/08/21 00:50:50;;;;;;;13.60;10.90;;;;;;;15.26;76.95;101523.38;5039423;28;20169;-73
2021/08/21 00:53:15;;;;;;;14.67;12.23;;;;;;;15.46;75.80;101515.56;5038801;28;20174;-73
2021/08/21 00:55:40;;;;;;;13.53;11.47;;;;;;;15.22;76.51;101521.63;5038590;28;20174;-75
2021/08/21 00:58:06;;;;;;;15.70;12.80;;;;;;;15.27;76.56;101520.75;5039158;28;20212;-73
2021/08/21 01:00:31;;;;;;;12.00;10.70;;;;;;;15.13;76.87;101523.34;5038626;28;20205;-74
2021/08/21 01:02:56;;;;;;;12.00;10.73;;;;;;;15.25;77.06;101521.63;5038520;28;20308;-74
2021/08/21 01:05:22;;;;;;;16.40;12.53;;;;;;;15.13;77.20;101522.50;5038967;28;20253;-73
2021/08/21 01:07:47;;;;;;;17.90;14.97;;;;;;;15.28;76.46;101513.78;5038401;28;20474;-75
2021/08/21 01:10:17;;;;;;;17.90;13.10;;;;;;;15.36;75.88;101519.03;5038423;28;20261;-75
2021/08/21 01:12:46;;;;;;;12.67;10.87;;;;;;;15.31;75.83;101521.66;5038994;28;20167;-75
2021/08/21 01:15:11;;;;;;;12.80;10.53;;;;;;;15.30;76.40;101512.00;5038302;28;20437;-75
2021/08/21 01:17:37;;;;;;;15.03;12.40;;;;;;;15.34;75.90;101516.41;5021170;28;20457;-75
2021/08/21 01:20:05;;;;;;;13.67;11.13;;;;;;;15.28;76.38;101509.38;5021861;28;20194;-75
2021/08/21 01:22:30;;;;;;;15.10;12.30;;;;;;;15.07;76.71;101517.19;5038230;28;20503;-75
2021/08/21 01:24:56;;;;;;;12.37;11.17;;;;;;;15.02;77.45;101504.06;5037985;28;20866;-73
2021/08/21 01:27:26;;;;;;;12.73;11.47;;;;;;;15.08;77.51;101505.84;5038774;28;20179;-73
2021/08/21 01:29:52;;;;;;;12.50;10.93;;;;;;;15.12;77.12;101502.34;5038181;28;20445;-74
2021/08/21 01:32:19;;;;;;;13.47;12.10;;;;;;;15.05;77.23;101500.59;5037981;28;20431;-73
2021/08/21 01:34:45;;;;;;;13.43;12.03;;;;;;;14.98;77.58;101502.31;5038428;28;20171;-73
2021/08/21 01:37:10;;;;;;;12.43;11.23;;;;;;;15.01;77.25;101502.31;5038037;28;20504;-73
2021/08/21 01:39:35;;;;;;;12.97;11.47;;;;;;;15.04;77.39;101499.69;5038112;28;20185;-74
2021/08/21 01:42:02;;;;;;;12.93;11.70;;;;;;;15.25;76.41;101503.25;5037908;28;20186;-74
2021/08/21 01:44:27;;;;;;;13.63;11.23;;;;;;;15.11;76.68;101506.72;5037874;28;20174;-73
2021/08/21 01:46:52;;;;;;;13.20;11.90;;;;;;;15.07;76.67;101510.22;5037966;28;20658;-73
2021/08/21 01:49:19;;;;;;;13.73;12.23;;;;;;;15.10;76.24;101507.59;5038201;28;20181;-73
2021/08/21 01:51:46;;;;;;;13.50;11.93;;;;;;;15.10;76.60;101507.59;5021017;28;20273;-74
2021/08/21 01:54:17;;;;;;;13.30;11.90;;;;;;;15.06;76.62;101504.94;5037701;28;20670;-73
2021/08/21 01:56:50;;;;;;;13.27;11.87;;;;;;;15.02;76.82;101504.06;5038523;28;20444;-74
2021/08/21 01:59:22;;;;;;;13.43;11.50;;;;;;;15.06;76.49;101504.94;5037733;28;20431;-74
2021/08/21 02:01:48;;;;;;;14.97;12.43;;;;;;;15.01;76.72;101502.31;5037545;28;20439;-74
2021/08/21 02:04:13;;;;;;;16.10;13.37;;;;;;;14.85;77.27;101495.25;5037656;28;20398;-74
2021/08/21 02:06:39;;;;;;;13.93;12.43;;;;;;;14.96;76.92;101502.31;5037843;28;20675;-75
2021/08/21 02:09:04;;;;;;;15.67;12.93;;;;;;;14.82;77.61;101499.59;5038357;28;20193;-74
2021/08/21 02:11:29;;;;;;;13.10;11.57;;;;;;;14.69;77.81;101503.03;5037794;28;20170;-74
2021/08/21 02:13:55;;;;;;;17.77;13.40;;;;;;;14.69;77.55;101499.56;5037787;28;20498;-74
2021/08/21 02:16:20;;;;;;;14.13;12.63;;;;;;;14.93;76.72;101501.41;5038415;28;20846;-74
2021/08/21 02:18:45;;;;;;;14.93;12.83;;;;;;;15.01;75.85;101499.69;5037896;28;20178;-73
2021/08/21 02:21:12;;;;;;;14.80;11.83;;;;;;;15.11;75.89;101493.59;5037766;28;20205;-74
2021/08/21 02:23:38;;;;;;;13.70;12.30;;;;;;;14.86;76.51;101495.25;5037970;28;20265;-74
2021/08/21 02:26:03;;;;;;;13.90;12.27;;;;;;;14.85;77.11;101501.38;5037655;28;20665;-73
2021/08/21 02:28:28;;;;;;;16.50;12.80;;;;;;;14.86;77.26;101508.38;5037614;28;20197;-74
2021/08/21 02:30:54;;;;;;;15.83;12.80;;;;;;;14.80;77.16;101497.84;5038413;28;20189;-74
2021/08/21 02:33:19;;;;;;;14.87;12.77;;;;;;;14.73;77.20;101496.06;5037358;28;20443;-73
2021/08/21 02:35:44;;;;;;;16.87;12.37;;;;;;;14.89;76.79;101499.66;5038071;28;20194;-74
2021/08/21 02:38:10;;;;;;;15.57;12.67;;;;;;;14.70;76.88;101503.94;5038512;28;20181;-75
2021/08/21 02:40:36;;;;;;;17.40;13.03;;;;;;;14.90;76.27;101496.16;5037691;28;20213;-75
2021/08/21 02:43:01;;;;;;;13.90;11.80;;;;;;;15.03;75.82;101484.78;5037573;28;20174;-75
2021/08/21 02:45:28;;;;;;;15.00;12.90;;;;;;;14.76;76.54;101494.34;5038744;28;20479;-75
2021/08/21 02:47:53;;;;;;;16.90;13.87;;;;;;;14.56;77.89;101498.56;5037399;28;20173;-76
2021/08/21 02:50:19;;;;;;;22.00;13.90;;;;;;;14.59;77.48;101503.84;5037651;28;20744;-74
2021/08/21 02:52:44;;;;;;;13.93;12.00;;;;;;;14.55;78.11;101497.69;5039285;28;20213;-76
2021/08/21 02:55:10;;;;;;;17.13;13.50;;;;;;;14.72;77.03;101500.44;5040933;28;20220;-75
2021/08/21 02:57:35;;;;;;;14.87;12.97;;;;;;;14.56;77.26;101503.81;5040925;28;20432;-75
2021/08/21 03:00:01;;;;;;;14.33;12.50;;;;;;;14.67;77.19;101501.28;5041387;28;20248;-75
2021/08/21 03:02:26;;;;;;;16.20;13.60;;;;;;;14.69;77.05;101503.03;5041140;28;20224;-74
2021/08/21 03:04:52;;;;;;;18.03;13.90;;;;;;;14.57;77.18;101505.56;5040784;28;20243;-75
2021/08/21 03:07:17;;;;;;;17.67;13.43;;;;;;;14.46;77.58;101502.88;5041293;28;20194;-75
2021/08/21 03:09:43;;;;;;;16.17;14.10;;;;;;;14.67;76.62;101504.81;5040870;28;20384;-74
2021/08/21 03:12:08;;;;;;;18.83;15.00;;;;;;;14.57;77.13;101511.72;5040852;28;20166;-75
2021/08/21 03:14:33;;;;;;;20.17;14.17;;;;;;;14.44;77.67;101520.38;5023832;28;20617;-73
2021/08/21 03:16:59;;;;;;;19.73;14.30;;;;;;;14.63;76.75;101519.63;5040764;28;20178;-75
2021/08/21 03:19:24;;;;;;;15.10;13.47;;;;;;;14.71;76.39;101527.56;5040713;28;20188;-75
2021/08/21 03:21:49;;;;;;;16.67;13.73;;;;;;;14.73;76.48;101532.81;5041273;28;20441;-75
2021/08/21 03:24:15;;;;;;;19.53;15.77;;;;;;;14.60;77.01;101529.19;5040901;28;20222;-74
2021/08/21 03:26:40;;;;;;;16.57;13.97;;;;;;;14.78;76.46;101529.34;5040738;28;20184;-75
2021/08/21 03:29:09;;;;;;;21.03;15.70;;;;;;;14.98;75.93;101528.56;5040966;28;20520;-74
2021/08/21 03:31:34;;;;;;;15.40;13.63;;;;;;;14.69;77.32;101531.91;5040632;28;20208;-74
2021/08/21 03:34:00;;;;;;;14.97;13.17;;;;;;;14.72;77.61;101531.94;5040296;28;20416;-74
2021/08/21 03:36:26;;;;;;;16.90;13.70;;;;;;;14.69;77.59;101537.16;5040980;28;20442;-75
2021/08/21 03:38:51;;;;;;;17.30;13.23;;;;;;;14.96;76.25;101535.53;5040540;28;20174;-74
2021/08/21 03:41:16;;;;;;;18.20;13.33;;;;;;;14.97;76.23;101535.53;5040129;28;20464;-75
2021/08/21 03:43:42;;;;;;;15.17;11.73;;;;;;;15.03;76.83;101536.44;5040520;28;20175;-74
2021/08/21 03:46:07;;;;;;;15.07;13.47;;;;;;;15.08;76.49;101534.72;5040077;28;20228;-75
2021/08/21 03:48:32;;;;;;;15.13;13.60;;;;;;;15.27;75.52;101541.78;5039893;28;20198;-74
2021/08/21 03:50:58;;;;;;;16.00;13.50;;;;;;;15.39;75.47;101535.69;5040722;28;20167;-73
2021/08/21 03:53:23;;;;;;;15.63;11.60;;;;;;;15.09;76.29;101539.13;5040120;28;20450;-73
2021/08/21 03:55:49;;;;;;;13.80;11.93;;;;;;;15.23;76.15;101542.66;5039980;28;20592;-73
2021/08/21 03:58:16;;;;;;;16.70;12.37;;;;;;;15.21;76.52;101544.41;5040476;28;20257;-74
2021/08/21 04:00:41;;;;;;;18.90;13.03;;;;;;;15.40;76.19;101542.69;5022754;28;20240;-75
2021/08/21 04:03:08;;;;;;;15.00;12.60;;;;;;;15.73;75.01;101548.88;5039722;28;20395;-73
2021/08/21 04:05:33;;;;;;;15.37;12.07;;;;;;;15.78;74.94;101554.16;5041187;28;20166;-74
2021/08/21 04:07:59;;;;;;;12.73;11.40;;;;;;;15.64;74.94;101547.13;5039867;28;20637;-74
2021/08/21 04:10:24;;;;;;;15.30;13.27;;;;;;;15.07;77.54;101556.59;5040363;28;20249;-75
2021/08/21 04:12:49;;;;;;;14.73;13.10;;;;;;;15.32;76.69;101547.94;5040153;28;20220;-74
2021/08/21 04:15:15;;;;;;;13.20;11.27;;;;;;;15.39;76.56;101547.97;5039665;28;20265;-73
2021/08/21 04:17:40;;;;;;;13.43;11.83;;;;;;;15.33;77.07;101549.69;5039577;28;20232;-74
2021/08/21 04:20:06;;;;;;;15.13;12.00;;;;;;;15.55;76.54;101541.00;5039823;28;20532;-75
2021/08/21 04:22:31;;;;;;;13.33;11.80;;;;;;;15.59;76.29;101542.75;5039449;28;20178;-75
2021/08/21 04:24:57;;;;;;;13.60;12.17;;;;;;;15.68;75.95;101537.47;5039121;28;20519;-73
2021/08/21 04:27:23;;;;;;;15.00;12.47;;;;;;;15.61;75.97;101541.00;5039847;28;20174;-73
2021/08/21 04:29:48;;;;;;;12.50;11.20;;;;;;;15.42;76.60;101543.56;5039345;28;20188;-75
2021/08/21 04:32:14;;;;;;;13.27;11.90;;;;;;;15.96;75.02;101534.91;5039172;28;20478;-75
2021/08/21 04:34:39;;;;;;;13.07;11.77;;;;;;;15.97;74.83;101539.31;5039725;28;20536;-74
2021/08/21 04:37:05;;;;;;;12.13;10.83;;;;;;;15.92;74.94;101538.44;5039529;28;20224;-74
2021/08/21 04:39:30;;;;;;;12.87;11.47;;;;;;;15.71;76.22;101540.13;5039236;28;20545;-74
2021/08/21 04:41:55;;;;;;;12.17;11.00;;;;;;;16.03;75.14;101541.06;5039450;28;20193;-73
2021/08/21 04:44:21;;;;;;;14.60;11.20;;;;;;;16.05;74.98;101540.19;5038864;28;20272;-74
2021/08/21 04:46:46;;;;;;;11.53;10.33;;;;;;;15.86;75.28;101538.41;5039078;28;20243;-74
2021/08/21 04:49:11;;;;;;;13.43;12.03;;;;;;;15.99;75.06;101540.16;5039372;28;20212;-73
2021/08/21 04:51:37;;;;;;;12.70;11.40;;;;;;;16.07;74.97;101535.78;5038971;28;20174;-74
2021/08/21 04:54:02;;;;;;;12.30;11.10;;;;;;;16.15;74.55;101536.66;5038774;28;20170;-74
2021/08/21 04:56:27;;;;;;;12.63;11.43;;;;;;;16.21;74.09;101548.94;5039229;28;20438;-74
2021/08/21 04:58:53;;;;;;;13.03;11.50;;;;;;;15.99;75.09;101553.31;5038900;28;20227;-73
2021/08/21 05:01:18;;;;;;;12.87;11.60;;;;;;;16.02;75.27;101545.44;5038673;28;20210;-74
2021/08/21 05:03:43;;;;;;;14.50;11.83;;;;;;;16.31;74.17;101561.19;5038868;28;20180;-74
2021/08/21 05:06:12;;;;;;;13.50;11.20;;;;;;;16.02;74.70;101569.13;5038679;28;20536;-73
2021/08/21 05:08:40;;;;;;;11.77;10.57;;;;;;;16.06;75.00;101567.34;5038740;28;20219;-74
2021/08/21 05:11:05;;;;;;;11.87;10.67;;;;;;;16.47;73.56;101572.59;5038886;28;20409;-74
2021/08/21 05:13:31;;;;;;;11.57;10.47;;;;;;;16.34;73.65;101568.22;5038507;28;20424;-74
2021/08/21 05:15:56;;;;;;;11.77;10.60;;;;;;;16.39;73.65;101565.59;5037637;28;20551;-74
2021/08/21 05:18:29;;;;;;;12.60;11.40;;;;;;;15.86;75.90;101564.69;5021879;28;20264;-75
2021/08/21 05:21:05;;;;;;;12.87;11.53;;;;;;;15.86;75.76;101567.34;5038410;28;20208;-75
2021/08/21 05:23:34;;;;;;;10.97;9.87;;;;;;;16.23;75.55;101572.63;5038261;28;20399;-75
2021/08/21 05:25:59;;;;;;;13.67;12.20;;;;;;;17.32;71.14;101568.84;5038229;28;20443;-76
2021/08/21 05:28:25;;;;;;;11.67;10.63;;;;;;;17.47;69.95;101570.53;5038469;28;20399;-75
2021/08/21 05:30:50;;;;;;;13.30;11.93;;;;;;;17.49;70.21;101580.19;5038745;28;20241;-74
2021/08/21 05:33:17;;;;;;;11.07;10.07;;;;;;;17.74;67.75;101584.41;5038109;28;20452;-75
2021/08/21 05:35:42;;;;;;;12.23;10.40;;;;;;;17.54;69.41;101584.56;5038410;28;20182;-75
2021/08/21 05:38:08;;;;;;;10.03;9.03;;;;;;;18.17;66.87;101587.66;5038499;28;20425;-75
2021/08/21 05:40:34;;;;;;;9.50;8.60;;;;;;;17.99;66.33;101585.16;5038111;28;20304;-74
2021/08/21 05:42:59;;;;;;;11.93;8.77;;;;;;;18.04;66.30;101579.84;5021020;28;20425;-74
2021/08/21 05:45:25;;;;;;;8.97;8.07;;;;;;;17.87;66.98;101569.38;5038597;28;20217;-75
2021/08/21 05:47:51;;;;;;;9.47;8.67;;;;;;;20.14;60.55;101564.94;5038168;28;20261;-75
2021/08/21 05:50:18;;;;;;;9.37;8.40;;;;;;;21.01;56.64;101555.41;5038023;28;20462;-74
2021/08/21 05:52:44;;;;;;;8.10;7.40;;;;;;;21.89;53.77;101555.22;5038455;28;20786;-74
2021/08/21 05:55:09;;;;;;;7.93;7.23;;;;;;;22.54;51.81;101558.00;5037996;28;20424;-75
2021/08/21 05:57:34;;;;;;;7.93;7.10;;;;;;;23.75;49.03;101551.75;5038012;28;20181;-74
2021/08/21 06:00:00;;;;;;;6.93;6.30;;;;;;;22.65;49.59;101554.16;5038351;28;20262;-74
2021/08/21 06:02:25;;;;;;;6.03;5.47;;;;;;;24.19;47.05;101546.78;5038136;28;20174;-75
2021/08/21 06:04:52;;;;;;;5.87;5.10;;;;;;;23.01;48.47;101554.88;5037835;28;20419;-74
2021/08/21 06:07:17;;;;;;;5.27;4.60;;;;;;;22.17;50.23;101572.19;5038319;28;20224;-75
2021/08/21 06:09:42;;;;;;;5.90;5.03;;;;;;;20.96;53.68;101579.38;5037967;28;20806;-75
2021/08/21 06:12:08;;;;;;;5.20;4.43;;;;;;;20.15;56.31;101574.63;5037812;28;20491;-74
2021/08/21 06:14:37;;;;;;;4.70;4.30;;;;;;;20.09;56.65;101574.72;5038150;28;20232;-74
2021/08/21 06:17:09;;;;;;;4.60;4.20;;;;;;;19.63;57.57;101570.13;5021249;28;20572;-74
2021/08/21 06:19:35;;;;;;;5.00;4.60;;;;;;;19.03;59.58;101577.13;5034793;28;20511;-78
2021/08/21 06:22:00;;;;;;;5.47;4.97;;;;;;;19.28;59.06;101582.06;5037431;28;20206;-74
2021/08/21 06:24:26;;;;;;;6.40;4.63;;;;;;;19.39;59.06;101572.25;5037412;28;20457;-74
2021/08/21 06:26:51;;;;;;;5.07;4.60;;;;;;;19.66;57.77;101573.63;5038169;28;20216;-74
2021/08/21 06:29:16;;;;;;;4.90;4.50;;;;;;;19.95;57.57;101579.41;5041387;28;20213;-74
2021/08/21 06:31:42;;;;;;;6.73;4.77;;;;;;;19.04;59.76;101578.88;5041460;28;20166;-75
2021/08/21 06:34:07;;;;;;;8.03;5.47;;;;;;;18.86;59.98;101582.56;5041818;28;20170;-74
2021/08/21 06:36:32;;;;;;;5.47;5.03;;;;;;;18.32;61.97;101602.47;5041224;28;20539;-74
2021/08/21 06:38:57;;;;;;;7.43;5.50;;;;;;;19.18;60.85;101595.41;5041451;28;20305;-74
2021/08/21 06:41:23;;;;;;;8.20;6.00;;;;;;;19.39;60.18;101592.50;5041713;28;20194;-75
2021/08/21 06:43:48;;;;;;;7.30;5.77;;;;;;;19.40;59.68;101584.56;5041145;28;20558;-75
2021/08/21 06:46:13;;;;;;;6.17;5.53;;;;;;;18.85;61.21;101594.91;5041352;28;20171;-75
2021/08/21 06:48:39;;;;;;;7.57;4.80;;;;;;;18.81;60.67;101601.09;5041719;28;20166;-74
2021/08/21 06:51:04;;;;;;;6.30;4.77;;;;;;;19.10;58.99;101599.91;5041033;28;20532;-74
2021/08/21 06:53:30;;;;;;;5.40;4.40;;;;;;;18.58;60.98;101601.34;5040947;28;20170;-75
2021/08/21 06:55:56;;;;;;;5.83;4.60;;;;;;;18.33;61.75;101605.97;5041719;28;20178;-76
2021/08/21 06:58:22;;;;;;;5.73;4.87;;;;;;;18.35;61.67;101606.84;5041164;28;20624;-75
2021/08/21 07:00:47;;;;;;;6.87;4.27;;;;;;;18.95;59.46;101606.25;5041040;28;20464;-74
2021/08/21 07:03:12;;;;;;;4.40;4.03;;;;;;;19.22;58.06;101605.97;5041107;28;20167;-74
2021/08/21 07:05:38;;;;;;;5.10;4.70;;;;;;;18.04;62.08;101606.25;5040802;28;20174;-74
2021/08/21 07:08:03;;;;;;;4.60;4.20;;;;;;;18.75;59.69;101600.28;5041006;28;20182;-74
2021/08/21 07:10:28;;;;;;;4.73;4.20;;;;;;;19.17;59.31;101598.06;5023942;28;20438;-73
2021/08/21 07:12:54;;;;;;;7.47;4.40;;;;;;;19.58;58.39;101599.31;5040762;28;20225;-75
2021/08/21 07:15:19;;;;;;;4.83;4.33;;;;;;;19.53;57.93;101595.84;5039872;28;20505;-76
2021/08/21 07:17:45;;;;;;;5.20;4.70;;;;;;;18.51;61.15;101613.75;5040893;28;20202;-73
2021/08/21 07:20:10;;;;;;;4.10;3.80;;;;;;;18.99;59.73;101609.75;5040438;28;20468;-75
2021/08/21 07:22:36;;;;;;;4.43;4.00;;;;;;;18.34;59.99;101613.00;5040403;28;20174;-76
2021/08/21 07:25:01;;;;;;;5.53;4.50;;;;;;;19.45;58.27;101603.03;5040352;28;20222;-76
2021/08/21 07:27:27;;;;;;;5.73;4.70;;;;;;;19.84;55.76;101596.31;5040504;28;20174;-74
2021/08/21 07:29:52;;;;;;;5.73;4.70;;;;;;;19.14;58.26;101609.56;5040680;28;20229;-75
2021/08/21 07:32:17;;;;;;;8.07;4.73;;;;;;;19.66;58.58;101607.13;5040327;28;20178;-75
2021/08/21 07:34:43;;;;;;;5.60;5.10;;;;;;;19.82;57.49;101618.38;5040156;28;20225;-75
2021/08/21 07:37:08;;;;;;;5.90;5.30;;;;;;;20.55;55.78;101609.28;5040575;28;20190;-75
2021/08/21 07:39:33;;;;;;;7.30;5.77;;;;;;;20.04;57.65;101613.66;5039153;28;20559;-74
2021/08/21 07:41:58;;;;;;;6.00;5.50;;;;;;;21.05;54.87;101615.41;5040170;28;20217;-74
2021/08/21 07:44:24;;;;;;;6.47;5.50;;;;;;;20.36;57.47;101615.78;5040436;28;20171;-76
2021/08/21 07:46:49;;;;;;;7.10;6.40;;;;;;;20.42;57.19;101622.75;5040007;28;20205;-76
2021/08/21 07:49:14;;;;;;;6.07;5.47;;;;;;;20.00;58.50;101612.81;5039798;28;20499;-73
2021/08/21 07:51:40;;;;;;;6.10;5.60;;;;;;;20.77;55.92;101617.72;5040492;28;20193;-73
2021/08/21 07:54:05;;;;;;;5.77;5.10;;;;;;;19.53;58.99;101627.59;5039850;28;20170;-73
2021/08/21 07:56:30;;;;;;;6.57;5.30;;;;;;;20.72;56.38;101619.59;5039880;28;20186;-73
2021/08/21 07:58:56;;;;;;;8.37;4.80;;;;;;;20.07;57.66;101618.91;5040409;28;20166;-72
2021/08/21 08:01:21;;;;;;;4.60;4.20;;;;;;;21.26;53.45;101615.88;5039885;28;20209;-71
2021/08/21 08:03:46;;;;;;;5.93;4.43;;;;;;;19.47;58.46;101623.25;5039471;28;20197;-71
2021/08/21 08:06:12;;;;;;;5.30;4.80;;;;;;;19.40;58.93;101621.56;5039941;28;20200;-71
2021/08/21 08:08:37;;;;;;;5.23;4.00;;;;;;;20.49;55.41;101616.41;5039632;28;20528;-71
2021/08/21 08:11:02;;;;;;;5.03;4.53;;;;;;;21.60;52.86;101621.34;5040055;28;20566;-73
2021/08/21 08:13:28;;;;;;;4.23;3.90;;;;;;;20.64;54.56;101612.63;5039918;28;20166;-74
2021/08/21 08:15:53;;;;;;;8.07;4.70;;;;;;;21.03;53.86;101619.88;5039343;28;20198;-75
2021/08/21 08:18:18;;;;;;;4.93;4.53;;;;;;;21.58;52.60;101611.69;5039304;28;20220;-76
2021/08/21 08:20:44;;;;;;;7.60;4.53;;;;;;;22.30;50.15;101609.97;5039854;28;20206;-76
2021/08/21 08:23:11;;;;;;;4.53;4.13;;;;;;;21.18;53.64;101613.38;5039146;28;20265;-76
2021/08/21 08:25:36;;;;;;;6.23;4.20;;;;;;;21.13;52.78;101626.72;5039184;28;20218;-76
2021/08/21 08:28:01;;;;;;;4.20;3.80;;;;;;;20.95;53.59;101620.03;5039672;28;20455;-75
2021/08/21 08:30:27;;;;;;;4.83;3.90;;;;;;;21.65;52.36;101616.81;5039298;28;20171;-76
2021/08/21 08:32:52;;;;;;;6.27;4.00;;;;;;;20.78;53.80;101625.66;5039147;28;20166;-78
2021/08/21 08:35:17;;;;;;;4.60;4.20;;;;;;;21.73;51.29;101618.41;5022455;28;20166;-76
2021/08/21 08:37:43;;;;;;;4.53;3.73;;;;;;;21.43;51.19;101613.72;5038936;28;20261;-77
2021/08/21 08:40:10;;;;;;;3.70;3.40;;;;;;;22.59;48.94;101604.81;5021593;28;20190;-76
2021/08/21 08:42:39;;;;;;;5.60;3.83;;;;;;;22.92;47.02;101611.00;5039343;28;20198;-77
2021/08/21 08:45:05;;;;;;;5.23;3.80;;;;;;;24.19;44.88;101604.50;5038806;28;20416;-76
2021/08/21 08:47:31;;;;;;;7.70;3.60;;;;;;;23.28;46.61;101613.53;5038755;28;20818;-79
2021/08/21 08:50:03;;;;;;;3.57;3.27;;;;;;;20.82;51.05;101618.50;5039249;28;20249;-77
2021/08/21 08:52:28;;;;;;;3.77;3.30;;;;;;;22.15;48.89;101621.84;5038852;28;20563;-77
2021/08/21 08:54:53;;;;;;;5.03;3.43;;;;;;;23.21;45.94;101617.31;5038706;28;20413;-78
2021/08/21 08:57:39;;;;;;;4.40;3.60;;;;;;;21.05;52.81;101636.59;5039141;28;20201;-76
2021/08/21 09:00:08;;;;;;;4.63;3.87;;;;;;;22.71;48.22;101628.41;5038599;28;20198;-78
2021/08/21 09:02:43;;;;;;;4.90;3.90;;;;;;;22.28;48.64;101637.47;5038692;28;20425;-76
2021/08/21 09:05:12;;;;;;;4.20;3.70;;;;;;;23.21;46.79;101631.47;5038458;28;20499;-81
2021/08/21 09:07:44;;;;;;;15.50;4.13;;;;;;;23.63;44.78;101626.69;5038511;28;20445;-79
2021/08/21 09:10:21;;;;;;;4.37;3.97;;;;;;;24.44;44.11;101625.84;5038447;28;20802;-77
2021/08/21 09:12:49;;;;;;;4.40;3.93;;;;;;;25.15;42.55;101627.81;5038385;28;20409;-75
2021/08/21 09:15:23;;;;;;;4.50;4.10;;;;;;;22.87;46.99;101624.41;5038572;28;20425;-77
2021/08/21 09:17:58;;;;;;;4.37;3.93;;;;;;;23.30;47.35;101630.34;5038426;28;20419;-73
2021/08/21 09:20:23;;;;;;;4.90;3.60;;;;;;;23.25;47.20;101634.06;5038311;28;20514;-73
2021/08/21 09:22:49;;;;;;;3.83;3.50;;;;;;;24.10;44.76;101627.00;5038063;28;20702;-74
2021/08/21 09:25:27;;;;;;;4.30;3.20;;;;;;;23.43;45.87;101628.16;5038008;28;20237;-73
2021/08/21 09:27:52;;;;;;;3.47;3.17;;;;;;;23.91;45.35;101626.72;5038207;28;20178;-74
2021/08/21 09:30:18;;;;;;;5.43;3.37;;;;;;;24.58;43.59;101620.03;5038319;28;20825;-73
2021/08/21 09:32:43;;;;;;;3.67;3.37;;;;;;;24.23;44.97;101621.25;5038317;28;20558;-74
2021/08/21 09:35:11;;;;;;;3.90;3.60;;;;;;;22.75;46.83;101623.91;5021432;28;20426;-75
2021/08/21 09:37:50;;;;;;;4.13;3.83;;;;;;;24.66;43.94;101619.81;5038134;28;20433;-73
2021/08/21 09:40:36;;;;;;;3.50;3.20;;;;;;;24.72;43.27;101616.91;5038122;28;20546;-73
2021/08/21 09:43:04;;;;;;;4.00;3.33;;;;;;;25.14;42.17;101621.63;5037927;28;20413;-74
2021/08/21 09:45:29;;;;;;;3.10;2.80;;;;;;;24.49;43.40;101618.59;5038172;28;20814;-70
2021/08/21 09:48:12;;;;;;;3.20;3.00;;;;;;;24.26;44.55;101618.47;5038065;28;20425;-74
2021/08/21 09:50:40;;;;;;;5.30;3.10;;;;;;;24.76;43.46;101621.22;5037938;28;20172;-78
2021/08/21 09:53:12;;;;;;;3.33;3.03;;;;;;;23.18;46.51;101620.06;5020746;28;20428;-76
2021/08/21 09:55:38;;;;;;;3.40;3.10;;;;;;;24.59;42.83;101615.59;5037799;28;20634;-77
2021/08/21 09:58:05;;;;;;;3.90;3.20;;;;;;;25.17;41.74;101616.16;5038501;28;20408;-78
2021/08/21 10:00:32;;;;;;;3.47;3.03;;;;;;;25.01;42.62;101618.53;5037848;28;20217;-77
2021/08/21 10:02:58;;;;;;;5.00;2.87;;;;;;;24.85;43.63;101615.53;5022812;28;20813;-77
2021/08/21 10:05:24;;;;;;;3.47;3.20;;;;;;;24.64;44.11;101613.66;5025657;28;20409;-74
2021/08/21 10:07:56;;;;;;;3.70;3.30;;;;;;;24.68;44.05;101612.59;5041910;28;20822;-76
2021/08/21 10:10:22;;;;;;;3.60;3.17;;;;;;;24.85;42.24;101617.34;5041939;28;20650;-76
2021/08/21 10:12:53;;;;;;;4.90;3.07;;;;;;;23.16;46.13;101608.56;5025187;28;20451;-74
2021/08/21 10:15:19;;;;;;;3.47;3.10;;;;;;;24.96;42.46;101607.16;5041604;28;20430;-77
2021/08/21 10:17:45;;;;;;;3.27;2.97;;;;;;;25.54;41.53;101613.91;5008310;28;20686;-75
2021/08/21 10:20:11;;;;;;;2.70;2.50;;;;;;;26.21;40.01;101604.97;5041983;28;20444;-75
2021/08/21 10:22:38;;;;;;;3.07;2.77;;;;;;;26.09;41.10;101605.47;5041597;28;20189;-76
2021/08/21 10:25:05;;;;;;;3.33;2.20;;;;;;;26.29;39.38;101603.75;5024191;28;20460;-77
2021/08/21 10:27:34;;;;;;;3.60;2.80;;;;;;;24.70;41.66;101605.44;5041799;28;20420;-83
2021/08/21 10:30:25;;;;;;;3.10;2.80;;;;;;;23.46;45.76;101605.91;5024317;28;20417;-74
2021/08/21 10:32:58;;;;;;;4.43;3.00;;;;;;;24.59;42.87;101596.94;5041341;28;20501;-74
2021/08/21 10:35:59;;;;;;;4.40;2.87;;;;;;;25.87;39.86;101603.66;5041297;28;20416;-72
2021/08/21 10:38:33;;;;;;;5.03;3.00;;;;;;;23.21;45.71;101614.63;4926669;29;20433;-78
2021/08/21 10:40:59;;;;;;;5.50;2.90;;;;;;;25.88;39.75;101596.50;5026322;28;20456;-72
2021/08/21 10:43:47;;;;;;;2.80;2.50;;;;;;;26.20;38.86;101607.69;5023983;28;20421;-71
2021/08/21 10:46:13;;;;;;;2.70;2.50;;;;;;;26.78;37.91;101598.97;5041584;28;20818;-74
2021/08/21 10:48:38;;;;;;;3.43;3.00;;;;;;;26.97;36.52;101603.50;5023778;28;20425;-75
2021/08/21 10:51:29;;;;;;;2.80;2.60;;;;;;;27.55;36.73;101602.59;5041212;28;20269;-75
2021/08/21 10:53:54;;;;;;;2.50;2.30;;;;;;;26.80;37.17;101598.91;5041008;28;20170;-76
2021/08/21 10:56:34;;;;;;;2.87;2.67;;;;;;;26.50;37.78;101604.63;5041076;28;20644;-77
2021/08/21 10:59:00;;;;;;;2.93;2.63;;;;;;;26.63;37.81;101603.16;5040950;28;20173;-77
2021/08/21 11:01:25;;;;;;;3.20;2.57;;;;;;;26.30;36.50;101608.16;5040777;28;20468;-78
2021/08/21 11:03:51;;;;;;;2.60;2.40;;;;;;;25.82;38.29;101602.13;5040713;28;20190;-77
2021/08/21 11:06:28;;;;;;;3.10;2.80;;;;;;;26.61;37.11;101596.16;5041352;28;20177;-75
2021/08/21 11:08:56;;;;;;;2.60;2.40;;;;;;;27.33;35.71;101602.69;5040960;28;20491;-77
2021/08/21 11:11:28;;;;;;;3.20;2.43;;;;;;;27.50;35.79;101597.44;5040836;28;20852;-79
2021/08/21 11:14:23;;;;;;;2.80;2.60;;;;;;;26.67;35.14;101595.84;5039087;28;20495;-76
2021/08/21 11:16:55;;;;;;;2.40;2.20;;;;;;;27.38;34.16;101595.34;5040820;28;20404;-75